createdAt,value
2023-08-20T00:00:22.321Z,22.18
2023-08-20T00:03:14.959Z,22.11
2023-08-20T00:06:12.246Z,22.08
2023-08-20T00:09:02.993Z,22.09
2023-08-20T00:12:00.217Z,22.06
2023-08-20T00:15:06.223Z,21.96
2023-08-20T00:18:04.249Z,21.93
2023-08-20T00:20:55.585Z,21.90
2023-08-20T00:23:53.266Z,21.88
2023-08-20T00:26:44.344Z,21.85
2023-08-20T00:29:42.220Z,21.82
2023-08-20T00:32:33.020Z,21.81
2023-08-20T00:35:30.221Z,21.78
2023-08-20T00:38:20.894Z,21.72
2023-08-20T00:41:18.211Z,21.70
2023-08-20T00:44:08.862Z,21.66
2023-08-20T00:47:08.209Z,21.62
2023-08-20T00:49:59.285Z,21.60
2023-08-20T00:52:56.190Z,21.61
2023-08-20T00:55:46.892Z,21.63
2023-08-20T00:58:44.199Z,21.57
2023-08-20T01:01:34.874Z,21.52
2023-08-20T01:04:32.251Z,21.45
2023-08-20T01:07:35.709Z,21.40
2023-08-20T01:10:38.192Z,21.40
2023-08-20T01:13:29.023Z,21.39
2023-08-20T01:16:26.214Z,21.36
2023-08-20T01:19:22.835Z,21.36
2023-08-20T01:22:42.248Z,21.38
2023-08-20T01:26:22.158Z,21.35
2023-08-20T01:29:20.173Z,21.33
2023-08-20T01:32:13.089Z,21.28
2023-08-20T01:35:11.234Z,21.23
2023-08-20T01:38:01.885Z,21.21
2023-08-20T01:40:59.205Z,21.19
2023-08-20T01:43:49.865Z,21.17
2023-08-20T01:46:47.190Z,21.15
2023-08-20T01:49:44.190Z,21.10
2023-08-20T01:52:34.922Z,21.10
2023-08-20T01:55:33.029Z,21.11
2023-08-20T01:58:24.438Z,21.11
2023-08-20T02:01:21.234Z,21.10
2023-08-20T02:04:12.032Z,21.09
2023-08-20T02:07:09.213Z,21.08
2023-08-20T02:10:00.016Z,21.09
2023-08-20T02:12:57.165Z,21.06
2023-08-20T02:15:47.819Z,21.06
2023-08-20T02:18:45.193Z,21.02
2023-08-20T02:21:36.114Z,20.97
2023-08-20T02:24:33.180Z,20.95
2023-08-20T02:27:23.919Z,20.93
2023-08-20T02:30:21.188Z,20.93
2023-08-20T02:33:12.339Z,20.93
2023-08-20T02:36:11.173Z,20.95
2023-08-20T02:39:01.863Z,20.94
2023-08-20T02:41:59.219Z,20.90
2023-08-20T02:44:50.250Z,20.85
2023-08-20T02:47:47.214Z,20.83
2023-08-20T02:50:38.013Z,20.81
2023-08-20T02:53:35.166Z,20.81
2023-08-20T02:56:25.848Z,20.83
2023-08-20T02:59:23.172Z,20.82
2023-08-20T03:02:13.854Z,20.79
2023-08-20T03:05:13.158Z,20.77
2023-08-20T03:08:06.756Z,20.75
2023-08-20T03:11:04.143Z,20.76
2023-08-20T03:13:54.821Z,20.75
2023-08-20T03:16:52.146Z,20.73
2023-08-20T03:19:59.337Z,20.72
2023-08-20T03:22:57.150Z,20.73
2023-08-20T03:25:47.801Z,20.72
2023-08-20T03:28:45.139Z,20.67
2023-08-20T03:31:35.857Z,20.68
2023-08-20T03:34:33.135Z,20.70
2023-08-20T03:37:23.865Z,20.70
2023-08-20T03:40:21.167Z,20.69
2023-08-20T03:43:11.995Z,20.67
2023-08-20T03:46:10.189Z,20.66
2023-08-20T03:49:00.981Z,20.64
2023-08-20T03:51:58.123Z,20.63
2023-08-20T03:54:55.161Z,20.64
2023-08-20T03:57:46.277Z,20.59
2023-08-20T04:00:44.119Z,20.55
2023-08-20T04:03:34.827Z,20.53
2023-08-20T04:06:32.121Z,20.59
2023-08-20T04:09:22.951Z,20.63
2023-08-20T04:12:20.160Z,20.69
2023-08-20T04:15:10.912Z,20.76
2023-08-20T04:18:08.161Z,20.80
2023-08-20T04:20:59.048Z,20.84
2023-08-20T04:23:56.124Z,20.89
2023-08-20T04:26:46.859Z,20.92
2023-08-20T04:29:44.120Z,20.95
2023-08-20T04:32:34.900Z,20.98
2023-08-20T04:35:32.119Z,21.02
2023-08-20T04:38:23.450Z,21.10
2023-08-20T04:41:21.273Z,21.15
2023-08-20T04:44:12.033Z,21.24
2023-08-20T04:47:09.103Z,21.37
2023-08-20T04:49:59.763Z,21.50
2023-08-20T04:52:57.152Z,21.62
2023-08-20T04:55:47.827Z,21.72
2023-08-20T04:58:45.137Z,21.85
2023-08-20T05:01:35.840Z,21.97
2023-08-20T05:04:33.084Z,22.15
2023-08-20T05:07:30.079Z,22.31
2023-08-20T05:10:28.132Z,22.46
2023-08-20T05:13:21.234Z,22.57
2023-08-20T05:16:18.166Z,22.71
2023-08-20T05:19:08.864Z,22.90
2023-08-20T05:22:07.114Z,23.08
2023-08-20T05:25:04.197Z,23.27
2023-08-20T05:28:02.134Z,23.47
2023-08-20T05:30:57.640Z,23.68
2023-08-20T05:33:55.123Z,23.86
2023-08-20T05:36:45.804Z,24.10
2023-08-20T05:39:51.123Z,24.39
2023-08-20T05:42:41.825Z,24.72
2023-08-20T05:45:39.137Z,25.17
2023-08-20T05:48:30.201Z,25.76
2023-08-20T05:51:27.110Z,26.29
2023-08-20T05:54:17.858Z,26.83
2023-08-20T05:57:15.095Z,27.26
2023-08-20T06:00:06.805Z,27.59
2023-08-20T06:03:04.138Z,28.01
2023-08-20T06:05:54.880Z,28.43
2023-08-20T06:09:06.632Z,28.90
2023-08-20T06:11:58.806Z,29.49
2023-08-20T06:14:56.119Z,30.01
2023-08-20T06:17:46.814Z,30.54
2023-08-20T06:20:44.143Z,30.72
2023-08-20T06:23:44.105Z,30.87
2023-08-20T06:26:42.082Z,31.11
2023-08-20T06:29:32.860Z,31.68
2023-08-20T06:32:32.101Z,32.25
2023-08-20T06:35:22.832Z,32.62
2023-08-20T06:38:20.227Z,33.03
2023-08-20T06:41:10.921Z,33.26
2023-08-20T06:44:08.085Z,33.75
2023-08-20T06:46:58.769Z,34.44
2023-08-20T06:49:58.097Z,34.86
2023-08-20T06:52:48.790Z,34.96
2023-08-20T06:55:46.098Z,35.05
2023-08-20T06:58:37.204Z,34.95
2023-08-20T07:01:34.152Z,35.17
2023-08-20T07:04:25.095Z,35.66
2023-08-20T07:07:22.248Z,36.08
2023-08-20T07:10:13.301Z,36.26
2023-08-20T07:13:11.092Z,36.42
2023-08-20T07:16:01.946Z,36.81
2023-08-20T07:19:01.020Z,37.18
2023-08-20T07:21:51.712Z,37.44
2023-08-20T07:24:49.051Z,37.65
2023-08-20T07:27:39.717Z,37.65
2023-08-20T07:30:37.051Z,37.51
2023-08-20T07:33:27.717Z,37.62
2023-08-20T07:36:26.084Z,37.82
2023-08-20T07:39:18.666Z,37.98
2023-08-20T07:42:16.217Z,37.93
2023-08-20T07:45:08.320Z,37.72
2023-08-20T07:48:07.245Z,37.56
2023-08-20T07:50:58.201Z,37.47
2023-08-20T07:53:55.054Z,37.40
2023-08-20T07:57:14.013Z,37.36
2023-08-20T08:00:12.104Z,37.16
2023-08-20T08:03:02.867Z,37.14
2023-08-20T08:06:02.329Z,37.22
2023-08-20T08:08:54.820Z,37.05
2023-08-20T08:11:54.067Z,37.03
2023-08-20T08:14:45.001Z,37.11
2023-08-20T08:17:42.045Z,37.15
2023-08-20T08:20:33.060Z,37.13
2023-08-20T08:23:30.049Z,36.98
2023-08-20T08:26:20.737Z,36.74
2023-08-20T08:29:18.066Z,36.78
2023-08-20T08:32:08.630Z,36.74
2023-08-20T08:35:06.074Z,36.70
2023-08-20T08:38:11.021Z,36.71
2023-08-20T08:41:02.509Z,36.70
2023-08-20T08:44:01.128Z,36.61
2023-08-20T08:46:52.717Z,36.71
2023-08-20T08:49:53.084Z,36.61
2023-08-20T08:52:47.150Z,36.55
2023-08-20T08:55:45.026Z,36.47
2023-08-20T08:58:35.721Z,36.67
2023-08-20T09:01:34.590Z,36.94
2023-08-20T09:04:25.645Z,36.90
2023-08-20T09:07:23.046Z,36.66
2023-08-20T09:10:13.666Z,36.53
2023-08-20T09:13:12.043Z,36.39
2023-08-20T09:16:07.922Z,36.46
2023-08-20T09:19:09.020Z,36.53
2023-08-20T09:22:09.027Z,36.72
2023-08-20T09:24:59.866Z,36.83
2023-08-20T09:27:57.040Z,36.89
2023-08-20T09:31:03.922Z,36.69
2023-08-20T09:34:03.042Z,36.66
2023-08-20T09:36:53.923Z,36.71
2023-08-20T09:39:51.462Z,36.55
2023-08-20T09:42:43.483Z,36.32
2023-08-20T09:45:41.067Z,36.27
2023-08-20T09:48:38.685Z,36.02
2023-08-20T09:51:41.038Z,35.68
2023-08-20T09:54:51.776Z,35.64
2023-08-20T09:57:50.023Z,35.81
2023-08-20T10:00:40.894Z,36.07
2023-08-20T10:03:38.045Z,36.31
2023-08-20T10:06:30.509Z,36.39
2023-08-20T10:09:29.128Z,36.48
2023-08-20T10:12:21.331Z,36.70
2023-08-20T10:15:22.154Z,36.95
2023-08-20T10:18:15.364Z,37.16
2023-08-20T10:21:16.020Z,37.36
2023-08-20T10:24:10.012Z,37.55
2023-08-20T10:27:19.005Z,37.63
2023-08-20T10:30:19.638Z,37.72
2023-08-20T10:33:16.990Z,37.84
2023-08-20T10:36:28.060Z,38.15
2023-08-20T10:39:32.979Z,38.41
2023-08-20T10:42:34.000Z,38.55
2023-08-20T10:45:31.062Z,38.71
2023-08-20T10:48:21.672Z,38.76
2023-08-20T10:51:36.039Z,38.63
2023-08-20T10:54:26.854Z,38.48
2023-08-20T10:57:25.485Z,38.53
2023-08-20T11:00:17.638Z,38.73
2023-08-20T11:03:16.012Z,38.88
2023-08-20T11:06:07.900Z,38.66
2023-08-20T11:09:06.004Z,38.51
2023-08-20T11:11:57.342Z,38.54
2023-08-20T11:14:57.103Z,38.69
2023-08-20T11:17:51.335Z,38.91
2023-08-20T11:20:49.030Z,39.19
2023-08-20T11:23:42.738Z,39.28
2023-08-20T11:26:42.047Z,39.47
2023-08-20T11:29:32.823Z,39.41
2023-08-20T11:32:31.986Z,39.27
2023-08-20T11:35:22.800Z,39.22
2023-08-20T11:38:21.036Z,39.36
2023-08-20T11:41:11.734Z,39.52
2023-08-20T11:44:09.002Z,39.41
2023-08-20T11:46:59.721Z,39.04
2023-08-20T11:50:11.988Z,38.60
2023-08-20T11:53:04.337Z,38.57
2023-08-20T11:56:01.976Z,38.56
2023-08-20T11:58:53.645Z,38.76
2023-08-20T12:01:51.046Z,39.05
2023-08-20T12:04:41.769Z,39.42
2023-08-20T12:07:39.289Z,39.60
2023-08-20T12:10:32.521Z,39.73
2023-08-20T12:13:29.995Z,39.83
2023-08-20T12:16:24.466Z,39.92
2023-08-20T12:19:22.020Z,39.66
2023-08-20T12:22:13.345Z,39.59
2023-08-20T12:25:10.994Z,39.56
2023-08-20T12:28:08.941Z,39.50
2023-08-20T12:31:06.056Z,39.63
2023-08-20T12:33:56.619Z,39.88
2023-08-20T12:36:54.053Z,39.68
2023-08-20T12:39:44.772Z,39.70
2023-08-20T12:42:43.762Z,39.77
2023-08-20T12:45:35.489Z,39.91
2023-08-20T12:48:32.998Z,39.98
2023-08-20T12:51:23.694Z,40.05
2023-08-20T12:54:21.037Z,40.05
2023-08-20T12:57:11.708Z,40.01
2023-08-20T13:00:19.004Z,39.63
2023-08-20T13:03:10.543Z,39.34
2023-08-20T13:06:07.980Z,39.38
2023-08-20T13:08:59.450Z,39.45
2023-08-20T13:11:59.000Z,39.44
2023-08-20T13:14:50.122Z,39.41
2023-08-20T13:17:48.204Z,39.61
2023-08-20T13:20:38.960Z,39.72
2023-08-20T13:23:35.942Z,39.82
2023-08-20T13:26:26.604Z,39.98
2023-08-20T13:29:23.950Z,39.97
2023-08-20T13:32:14.633Z,40.05
2023-08-20T13:35:13.030Z,39.91
2023-08-20T13:38:05.653Z,39.74
2023-08-20T13:41:09.235Z,39.39
2023-08-20T13:44:03.913Z,38.92
2023-08-20T13:47:03.980Z,38.83
2023-08-20T13:49:54.675Z,38.93
2023-08-20T13:52:51.940Z,39.07
2023-08-20T13:55:42.820Z,39.09
2023-08-20T13:58:39.943Z,39.22
2023-08-20T14:01:30.575Z,39.27
2023-08-20T14:04:28.200Z,39.28
2023-08-20T14:07:19.679Z,39.31
2023-08-20T14:10:17.958Z,39.28
2023-08-20T14:13:08.601Z,39.30
2023-08-20T14:16:06.004Z,39.34
2023-08-20T14:18:56.779Z,39.33
2023-08-20T14:21:53.925Z,39.24
2023-08-20T14:24:44.545Z,39.21
2023-08-20T14:27:41.933Z,39.05
2023-08-20T14:30:36.983Z,38.93
2023-08-20T14:33:38.116Z,38.91
2023-08-20T14:36:28.806Z,38.91
2023-08-20T14:39:25.953Z,38.95
2023-08-20T14:42:16.531Z,38.94
2023-08-20T14:45:13.966Z,38.91
2023-08-20T14:48:05.177Z,38.94
2023-08-20T14:51:02.970Z,38.92
2023-08-20T14:53:53.662Z,38.83
2023-08-20T14:56:51.932Z,38.83
2023-08-20T14:59:43.142Z,38.77
2023-08-20T15:02:40.011Z,38.71
2023-08-20T15:05:31.581Z,38.45
2023-08-20T15:08:28.912Z,38.01
2023-08-20T15:11:25.977Z,37.65
2023-08-20T15:14:16.697Z,37.31
2023-08-20T15:17:13.954Z,37.06
2023-08-20T15:20:13.400Z,36.75
2023-08-20T15:23:11.933Z,36.52
2023-08-20T15:26:02.638Z,36.29
2023-08-20T15:28:59.951Z,35.94
2023-08-20T15:31:52.663Z,35.68
2023-08-20T15:34:49.944Z,35.50
2023-08-20T15:37:41.097Z,35.28
2023-08-20T15:40:39.174Z,35.09
2023-08-20T15:43:30.117Z,34.87
2023-08-20T15:46:27.935Z,34.67
2023-08-20T15:49:18.662Z,34.48
2023-08-20T15:52:15.901Z,34.40
2023-08-20T15:55:07.172Z,34.24
2023-08-20T15:58:04.885Z,34.11
2023-08-20T16:00:55.493Z,33.97
2023-08-20T16:03:53.106Z,33.82
2023-08-20T16:06:50.019Z,33.70
2023-08-20T16:09:46.913Z,33.54
2023-08-20T16:12:41.423Z,33.46
2023-08-20T16:15:38.908Z,33.39
2023-08-20T16:18:29.610Z,33.32
2023-08-20T16:21:26.924Z,33.23
2023-08-20T16:24:17.598Z,33.16
2023-08-20T16:27:14.939Z,33.09
2023-08-20T16:30:07.424Z,33.00
2023-08-20T16:33:04.983Z,32.91
2023-08-20T16:35:55.827Z,32.86
2023-08-20T16:38:52.893Z,32.79
2023-08-20T16:41:43.700Z,32.74
2023-08-20T16:44:40.861Z,32.66
2023-08-20T16:47:31.561Z,32.58
2023-08-20T16:50:29.872Z,32.49
2023-08-20T16:53:20.629Z,32.37
2023-08-20T16:56:17.891Z,32.28
2023-08-20T16:59:09.459Z,32.20
2023-08-20T17:02:06.919Z,32.13
2023-08-20T17:04:57.644Z,32.06
2023-08-20T17:07:54.914Z,31.97
2023-08-20T17:10:45.657Z,31.87
2023-08-20T17:13:43.904Z,31.77
2023-08-20T17:16:42.271Z,31.64
2023-08-20T17:19:39.642Z,31.39
2023-08-20T17:22:30.946Z,31.17
2023-08-20T17:25:27.886Z,30.96
2023-08-20T17:28:18.824Z,30.77
2023-08-20T17:31:15.923Z,30.63
2023-08-20T17:34:06.911Z,30.46
2023-08-20T17:37:05.995Z,30.24
2023-08-20T17:39:56.576Z,30.00
2023-08-20T17:42:53.865Z,29.82
2023-08-20T17:45:44.920Z,29.63
2023-08-20T17:48:41.855Z,29.43
2023-08-20T17:51:32.483Z,29.26
2023-08-20T17:54:29.885Z,29.09
2023-08-20T17:57:20.776Z,28.93
2023-08-20T18:00:17.897Z,28.74
2023-08-20T18:03:08.464Z,28.55
2023-08-20T18:06:07.874Z,28.42
2023-08-20T18:08:58.444Z,28.28
2023-08-20T18:11:55.863Z,28.10
2023-08-20T18:14:46.412Z,27.88
2023-08-20T18:17:43.912Z,27.72
2023-08-20T18:20:34.702Z,27.57
2023-08-20T18:23:31.905Z,27.45
2023-08-20T18:26:22.661Z,27.24
2023-08-20T18:29:19.874Z,27.07
2023-08-20T18:32:10.431Z,26.91
2023-08-20T18:35:07.871Z,26.81
2023-08-20T18:37:58.419Z,26.73
2023-08-20T18:40:55.842Z,26.63
2023-08-20T18:43:46.476Z,26.53
2023-08-20T18:46:43.862Z,26.43
2023-08-20T18:49:35.272Z,26.22
2023-08-20T18:55:23.368Z,25.99
2023-08-20T18:58:20.874Z,25.87
2023-08-20T19:01:12.207Z,25.70
2023-08-20T19:04:10.985Z,25.57
2023-08-20T19:07:02.308Z,25.48
2023-08-20T19:09:59.909Z,25.39
2023-08-20T19:12:50.467Z,25.30
2023-08-20T19:15:54.935Z,25.20
2023-08-20T19:18:52.367Z,25.19
2023-08-20T19:21:49.836Z,25.12
2023-08-20T19:24:40.435Z,25.02
2023-08-20T19:27:38.811Z,24.94
2023-08-20T19:30:36.863Z,24.87
2023-08-20T19:33:27.538Z,24.79
2023-08-20T19:36:24.869Z,24.76
2023-08-20T19:39:17.031Z,24.70
2023-08-20T19:42:15.844Z,24.64
2023-08-20T19:45:07.165Z,24.58
2023-08-20T19:48:04.060Z,24.53
2023-08-20T19:50:54.692Z,24.47
2023-08-20T19:53:51.841Z,24.37
2023-08-20T19:56:42.532Z,24.26
2023-08-20T19:59:39.841Z,24.16
2023-08-20T20:02:30.449Z,24.12
2023-08-20T20:05:28.826Z,24.08
2023-08-20T20:08:20.201Z,24.06
2023-08-20T20:11:18.836Z,24.02
2023-08-20T20:14:09.376Z,23.97
2023-08-20T20:17:06.829Z,23.86
2023-08-20T20:19:57.383Z,23.82
2023-08-20T20:22:54.810Z,23.77
2023-08-20T20:25:45.402Z,23.73
2023-08-20T20:28:46.837Z,23.66
2023-08-20T20:31:37.501Z,23.61
2023-08-20T20:34:34.849Z,23.54
2023-08-20T20:37:25.662Z,23.45
2023-08-20T20:40:22.799Z,23.38
2023-08-20T20:43:13.496Z,23.30
2023-08-20T20:46:11.022Z,23.26
2023-08-20T20:49:02.165Z,23.21
2023-08-20T20:51:59.799Z,23.14
2023-08-20T20:54:50.385Z,23.10
2023-08-20T20:57:48.199Z,23.06
2023-08-20T21:00:38.801Z,23.03
2023-08-20T21:03:35.803Z,23.00
2023-08-20T21:06:26.405Z,22.95
2023-08-20T21:09:23.819Z,22.89
2023-08-20T21:12:14.358Z,22.88
2023-08-20T21:15:11.829Z,22.90
2023-08-20T21:18:02.531Z,22.91
2023-08-20T21:20:59.812Z,22.89
2023-08-20T21:23:50.434Z,22.87
2023-08-20T21:26:47.788Z,22.86
2023-08-20T21:29:39.172Z,22.78
2023-08-20T21:32:36.115Z,22.73
2023-08-20T21:35:26.920Z,22.69
2023-08-20T21:38:24.801Z,22.66
2023-08-20T21:41:15.350Z,22.64
2023-08-20T21:44:12.782Z,22.62
2023-08-20T21:47:20.211Z,22.59
2023-08-20T21:50:17.861Z,22.58
2023-08-20T21:53:08.429Z,22.54
2023-08-20T21:56:05.806Z,22.49
2023-08-20T21:58:56.469Z,22.47
2023-08-20T22:01:53.827Z,22.48
2023-08-20T22:04:44.947Z,22.42
2023-08-20T22:07:41.787Z,22.35
2023-08-20T22:10:32.322Z,22.33
2023-08-20T22:13:29.813Z,22.32
2023-08-20T22:16:20.417Z,22.32
2023-08-20T22:19:17.774Z,22.28
2023-08-20T22:22:08.336Z,22.24
2023-08-20T22:25:05.794Z,22.28
2023-08-20T22:27:56.364Z,22.31
2023-08-20T22:30:53.765Z,22.28
2023-08-20T22:33:44.340Z,22.27
2023-08-20T22:36:41.778Z,22.23
2023-08-20T22:39:32.337Z,22.22
2023-08-20T22:42:29.734Z,22.24
2023-08-20T22:45:26.781Z,22.24
2023-08-20T22:48:17.474Z,22.25
2023-08-20T22:51:14.807Z,22.17
2023-08-20T22:54:05.374Z,22.12
2023-08-20T22:57:02.803Z,22.10
2023-08-20T22:59:53.350Z,22.11
2023-08-20T23:02:50.809Z,22.12
2023-08-20T23:05:41.392Z,22.05
2023-08-20T23:08:38.761Z,22.05
2023-08-20T23:11:29.317Z,22.05
2023-08-20T23:14:26.767Z,22.03
2023-08-20T23:17:19.108Z,21.95
2023-08-20T23:20:16.747Z,21.90
2023-08-20T23:23:07.351Z,21.86
2023-08-20T23:26:04.762Z,21.84
2023-08-20T23:28:55.534Z,21.85
2023-08-20T23:31:52.763Z,21.84
2023-08-20T23:34:43.624Z,21.87
2023-08-20T23:37:40.761Z,21.86
2023-08-20T23:40:31.320Z,21.86
2023-08-20T23:43:29.762Z,21.87
2023-08-20T23:46:25.502Z,21.90
2023-08-20T23:49:27.753Z,21.90
2023-08-20T23:52:18.352Z,21.85
2023-08-20T23:55:15.734Z,21.80
2023-08-20T23:58:12.729Z,21.78
